createdAt,value
2023-12-08T00:00:52.840Z,97598.66
2023-12-08T00:03:19.883Z,97591.00
2023-12-08T00:05:46.628Z,97587.22
2023-12-08T00:08:13.430Z,97576.91
2023-12-08T00:10:40.040Z,97566.88
2023-12-08T00:13:06.631Z,97560.41
2023-12-08T00:15:33.340Z,97558.47
2023-12-08T00:17:59.968Z,97552.72
2023-12-08T00:20:27.109Z,97540.22
2023-12-08T00:22:53.909Z,97533.69
2023-12-08T00:25:20.584Z,97529.91
2023-12-08T00:27:47.256Z,97515.66
2023-12-08T00:30:14.203Z,97508.09
2023-12-08T00:32:40.990Z,97502.16
2023-12-08T00:35:08.445Z,97495.06
2023-12-08T00:37:35.920Z,97499.38
2023-12-08T00:40:03.498Z,97507.22
2023-12-08T00:42:30.061Z,97500.13
2023-12-08T00:44:56.797Z,97491.88
2023-12-08T00:47:23.799Z,97491.88
2023-12-08T00:49:50.635Z,97492.22
2023-12-08T00:52:17.301Z,97492.22
2023-12-08T00:54:43.947Z,97496.84
2023-12-08T00:57:10.565Z,97491.03
2023-12-08T00:59:37.317Z,97493.69
2023-12-08T01:02:04.092Z,97493.69
2023-12-08T01:04:30.717Z,97495.69
2023-12-08T01:06:57.353Z,97500.13
2023-12-08T01:09:23.920Z,97495.25
2023-12-08T01:11:50.540Z,97487.69
2023-12-08T01:14:17.589Z,97492.66
2023-12-08T01:16:44.774Z,97485.59
2023-12-08T01:19:12.687Z,97490.81
2023-12-08T01:21:45.576Z,97492.63
2023-12-08T01:24:13.311Z,97489.50
2023-12-08T01:26:46.344Z,97488.03
2023-12-08T01:29:25.089Z,97483.31
2023-12-08T01:31:51.734Z,97478.50
2023-12-08T01:34:19.200Z,97478.69
2023-12-08T01:36:51.818Z,97474.31
2023-12-08T01:39:18.614Z,97463.44
2023-12-08T01:41:45.239Z,97458.13
2023-12-08T01:44:11.882Z,97454.72
2023-12-08T01:46:38.913Z,97454.72
2023-12-08T01:49:07.138Z,97438.59
2023-12-08T01:51:34.577Z,97430.25
2023-12-08T01:54:01.497Z,97442.53
2023-12-08T01:56:28.518Z,97445.75
2023-12-08T01:58:55.620Z,97442.94
2023-12-08T02:01:22.343Z,97441.72
2023-12-08T02:03:51.809Z,97447.94
2023-12-08T02:06:20.874Z,97456.13
2023-12-08T02:08:51.139Z,97459.53
2023-12-08T02:11:18.679Z,97454.81
2023-12-08T02:13:46.159Z,97462.28
2023-12-08T02:16:56.869Z,97461.78
2023-12-08T02:19:24.239Z,97455.22
2023-12-08T02:21:51.122Z,97457.06
2023-12-08T02:24:20.820Z,97451.19
2023-12-08T02:26:49.233Z,97448.50
2023-12-08T02:29:16.454Z,97439.22
2023-12-08T02:31:52.993Z,97432.03
2023-12-08T02:34:22.966Z,97426.09
2023-12-08T02:36:51.198Z,97418.91
2023-12-08T02:39:19.058Z,97413.38
2023-12-08T02:41:45.764Z,97412.66
2023-12-08T02:44:12.478Z,97405.13
2023-12-08T02:46:40.572Z,97405.94
2023-12-08T02:49:07.307Z,97400.31
2023-12-08T02:51:34.049Z,97392.31
2023-12-08T02:54:00.756Z,97391.13
2023-12-08T02:56:27.350Z,97387.72
2023-12-08T02:58:54.859Z,97380.91
2023-12-08T03:01:21.516Z,97375.13
2023-12-08T03:03:48.231Z,97368.22
2023-12-08T03:06:15.008Z,97353.22
2023-12-08T03:08:41.711Z,97342.47
2023-12-08T03:11:08.294Z,97339.50
2023-12-08T03:13:34.863Z,97317.81
2023-12-08T03:16:01.511Z,97323.88
2023-12-08T03:18:28.178Z,97324.34
2023-12-08T03:20:54.820Z,97326.28
2023-12-08T03:23:21.448Z,97340.34
2023-12-08T03:25:48.056Z,97335.78
2023-12-08T03:28:14.635Z,97323.88
2023-12-08T03:30:41.293Z,97318.22
2023-12-08T03:33:07.993Z,97312.81
2023-12-08T03:35:34.709Z,97301.75
2023-12-08T03:38:01.389Z,97300.94
2023-12-08T03:40:27.946Z,97295.78
2023-12-08T03:42:54.525Z,97287.03
2023-12-08T03:45:21.397Z,97278.63
2023-12-08T03:47:48.208Z,97272.56
2023-12-08T03:50:14.979Z,97265.38
2023-12-08T03:52:41.560Z,97267.13
2023-12-08T03:55:08.517Z,97261.41
2023-12-08T03:57:35.161Z,97262.06
2023-12-08T04:00:01.871Z,97246.69
2023-12-08T04:02:28.668Z,97250.75
2023-12-08T04:04:55.289Z,97250.66
2023-12-08T04:07:21.999Z,97251.41
2023-12-08T04:09:48.637Z,97252.88
2023-12-08T04:12:15.234Z,97257.38
2023-12-08T04:14:43.455Z,97255.63
2023-12-08T04:17:11.222Z,97263.19
2023-12-08T04:19:38.448Z,97252.41
2023-12-08T04:22:05.212Z,97249.81
2023-12-08T04:24:31.826Z,97249.44
2023-12-08T04:26:58.440Z,97244.53
2023-12-08T04:29:25.062Z,97233.22
2023-12-08T04:31:51.642Z,97222.81
2023-12-08T04:34:18.402Z,97229.94
2023-12-08T04:36:45.992Z,97225.16
2023-12-08T04:39:12.679Z,97235.47
2023-12-08T04:41:39.441Z,97242.00
2023-12-08T04:44:06.061Z,97243.94
2023-12-08T04:46:32.648Z,97237.69
2023-12-08T04:48:59.355Z,97246.81
2023-12-08T04:51:26.110Z,97248.09
2023-12-08T04:53:58.216Z,97251.22
2023-12-08T04:56:24.789Z,97234.16
2023-12-08T04:58:51.636Z,97227.06
2023-12-08T05:01:18.284Z,97227.88
2023-12-08T05:03:45.029Z,97222.47
2023-12-08T05:06:11.880Z,97226.78
2023-12-08T05:08:40.109Z,97232.56
2023-12-08T05:11:07.384Z,97231.59
2023-12-08T05:13:34.435Z,97233.28
2023-12-08T05:16:01.134Z,97232.19
2023-12-08T05:18:27.883Z,97227.88
2023-12-08T05:20:54.627Z,97230.75
2023-12-08T05:23:21.336Z,97223.50
2023-12-08T05:25:47.952Z,97223.78
2023-12-08T05:28:14.733Z,97211.66
2023-12-08T05:30:41.304Z,97210.25
2023-12-08T05:33:08.121Z,97209.97
2023-12-08T05:35:34.791Z,97213.84
2023-12-08T05:38:01.437Z,97222.22
2023-12-08T05:40:27.996Z,97225.63
2023-12-08T05:42:54.585Z,97225.69
2023-12-08T05:45:21.410Z,97222.66
2023-12-08T05:47:48.228Z,97221.19
2023-12-08T05:50:15.032Z,97226.69
2023-12-08T05:52:41.805Z,97220.59
2023-12-08T05:55:08.743Z,97219.09
2023-12-08T05:57:35.434Z,97213.16
2023-12-08T06:00:02.648Z,97222.84
2023-12-08T06:02:29.271Z,97213.16
2023-12-08T06:04:55.886Z,97211.31
2023-12-08T06:07:22.556Z,97209.44
2023-12-08T06:09:49.271Z,97214.03
2023-12-08T06:12:15.999Z,97226.44
2023-12-08T06:14:42.670Z,97230.72
2023-12-08T06:17:09.257Z,97230.34
2023-12-08T06:19:35.937Z,97220.25
2023-12-08T06:22:02.630Z,97223.25
2023-12-08T06:24:29.446Z,97232.19
2023-12-08T06:26:56.170Z,97230.91
2023-12-08T06:29:22.822Z,97231.25
2023-12-08T06:31:49.461Z,97218.13
2023-12-08T06:34:17.232Z,97215.97
2023-12-08T06:36:49.381Z,97223.84
2023-12-08T06:39:18.887Z,97231.66
2023-12-08T06:41:45.956Z,97230.25
2023-12-08T06:44:12.683Z,97224.41
2023-12-08T06:46:39.425Z,97217.72
2023-12-08T06:49:06.509Z,97219.47
2023-12-08T06:51:37.117Z,97218.44
2023-12-08T06:54:05.056Z,97213.75
2023-12-08T06:56:31.735Z,97215.59
2023-12-08T06:59:00.874Z,97206.69
2023-12-08T07:01:29.503Z,97202.59
2023-12-08T07:03:56.238Z,97196.94
2023-12-08T07:06:23.845Z,97192.91
2023-12-08T07:08:50.648Z,97193.16
2023-12-08T07:11:18.566Z,97179.81
2023-12-08T07:13:45.120Z,97178.34
2023-12-08T07:16:11.954Z,97178.09
2023-12-08T07:18:38.947Z,97171.13
2023-12-08T07:21:06.301Z,97172.91
2023-12-08T07:23:33.454Z,97170.53
2023-12-08T07:26:01.124Z,97171.84
2023-12-08T07:28:27.735Z,97169.06
2023-12-08T07:30:54.353Z,97161.34
2023-12-08T07:33:22.125Z,97156.03
2023-12-08T07:35:49.006Z,97156.34
2023-12-08T07:38:15.606Z,97154.94
2023-12-08T07:40:42.188Z,97159.13
2023-12-08T07:43:08.831Z,97159.06
2023-12-08T07:45:35.535Z,97164.72
2023-12-08T07:48:02.309Z,97177.19
2023-12-08T07:50:28.929Z,97199.78
2023-12-08T07:52:55.618Z,97211.69
2023-12-08T07:55:22.226Z,97215.22
2023-12-08T07:57:48.825Z,97207.47
2023-12-08T08:00:15.941Z,97201.63
2023-12-08T08:02:42.655Z,97206.28
2023-12-08T08:05:09.473Z,97205.63
2023-12-08T08:07:36.192Z,97208.53
2023-12-08T08:10:03.592Z,97198.38
2023-12-08T08:12:33.245Z,97195.19
2023-12-08T08:14:59.980Z,97191.19
2023-12-08T08:17:26.841Z,97185.94
2023-12-08T08:19:53.612Z,97190.38
2023-12-08T08:22:30.023Z,97181.97
2023-12-08T08:25:00.415Z,97176.22
2023-12-08T08:27:27.530Z,97180.34
2023-12-08T08:29:54.598Z,97180.19
2023-12-08T08:32:21.322Z,97186.59
2023-12-08T08:34:47.979Z,97196.16
2023-12-08T08:37:14.674Z,97200.31
2023-12-08T08:39:41.798Z,97194.31
2023-12-08T08:42:08.476Z,97206.19
2023-12-08T08:44:35.153Z,97214.78
2023-12-08T08:47:01.775Z,97217.97
2023-12-08T08:49:28.805Z,97219.22
2023-12-08T08:51:55.557Z,97218.97
2023-12-08T08:54:22.327Z,97220.16
2023-12-08T08:56:48.973Z,97220.69
2023-12-08T08:59:15.731Z,97218.72
2023-12-08T09:01:43.369Z,97219.00
2023-12-08T09:04:10.505Z,97213.88
2023-12-08T09:06:37.374Z,97218.97
2023-12-08T09:09:05.588Z,97216.34
2023-12-08T09:11:32.253Z,97222.13
2023-12-08T09:13:58.859Z,97207.88
2023-12-08T09:16:31.192Z,97205.47
2023-12-08T09:18:57.991Z,97206.50
2023-12-08T09:21:24.668Z,97209.50
2023-12-08T09:23:51.271Z,97205.09
2023-12-08T09:26:17.910Z,97203.91
2023-12-08T09:28:44.519Z,97196.59
2023-12-08T09:31:11.096Z,97191.75
2023-12-08T09:33:37.983Z,97197.13
2023-12-08T09:36:05.328Z,97200.78
2023-12-08T09:38:34.509Z,97199.34
2023-12-08T09:41:05.641Z,97204.44
2023-12-08T09:43:57.315Z,97209.09
2023-12-08T09:46:24.706Z,97215.44
2023-12-08T09:48:53.116Z,97227.63
2023-12-08T09:51:20.609Z,97230.06
2023-12-08T09:53:49.546Z,97235.94
2023-12-08T09:56:17.627Z,97241.03
2023-12-08T09:58:46.523Z,97238.81
2023-12-08T10:01:15.104Z,97240.28
2023-12-08T10:03:42.315Z,97249.81
2023-12-08T10:06:11.211Z,97258.34
2023-12-08T10:08:38.388Z,97259.31
2023-12-08T10:11:06.974Z,97260.06
2023-12-08T10:13:34.199Z,97269.81
2023-12-08T10:16:01.252Z,97258.84
2023-12-08T10:18:29.879Z,97262.75
2023-12-08T10:21:20.557Z,97258.59
2023-12-08T10:23:48.040Z,97260.31
2023-12-08T10:26:16.684Z,97263.72
2023-12-08T10:28:44.262Z,97266.41
2023-12-08T10:31:10.957Z,97266.41
2023-12-08T10:33:37.716Z,97268.84
2023-12-08T10:36:04.825Z,97262.50
2023-12-08T10:38:31.579Z,97269.56
2023-12-08T10:40:58.205Z,97263.97
2023-12-08T10:43:26.715Z,97260.78
2023-12-08T10:45:54.401Z,97247.34
2023-12-08T10:48:22.468Z,97253.72
2023-12-08T10:50:53.927Z,97246.88
2023-12-08T10:53:22.298Z,97229.81
2023-12-08T10:56:10.763Z,97243.94
2023-12-08T10:58:43.208Z,97230.31
2023-12-08T11:01:14.329Z,97237.13
2023-12-08T11:03:54.143Z,97237.63
2023-12-08T11:06:34.996Z,97236.16
2023-12-08T11:09:07.655Z,97235.69
2023-12-08T11:11:39.048Z,97237.88
2023-12-08T11:14:14.305Z,97245.69
2023-12-08T11:16:50.318Z,97240.06
2023-12-08T11:19:20.333Z,97242.00
2023-12-08T11:21:47.833Z,97253.97
2023-12-08T11:24:15.079Z,97244.94
2023-12-08T11:27:07.794Z,97234.94
2023-12-08T11:29:59.306Z,97233.47
2023-12-08T11:32:39.541Z,97230.53
2023-12-08T11:35:13.480Z,97234.44
2023-12-08T11:37:42.146Z,97232.97
2023-12-08T11:40:12.433Z,97241.75
2023-12-08T11:42:40.726Z,97249.06
2023-12-08T11:45:12.071Z,97247.63
2023-12-08T11:47:39.106Z,97249.56
2023-12-08T11:50:06.698Z,97253.22
2023-12-08T11:52:34.889Z,97250.06
2023-12-08T11:55:17.454Z,97255.66
2023-12-08T11:58:04.291Z,97249.09
2023-12-08T12:00:32.805Z,97251.25
2023-12-08T12:03:00.465Z,97251.72
2023-12-08T12:05:27.787Z,97244.63
2023-12-08T12:07:56.080Z,97242.44
2023-12-08T12:10:27.166Z,97240.97
2023-12-08T12:12:59.199Z,97245.38
2023-12-08T12:15:26.950Z,97240.50
2023-12-08T12:17:53.973Z,97233.44
2023-12-08T12:20:21.141Z,97225.63
2023-12-08T12:22:47.782Z,97232.91
2023-12-08T12:25:14.457Z,97228.81
2023-12-08T12:27:46.323Z,97246.13
2023-12-08T12:30:13.735Z,97238.81
2023-12-08T12:32:41.363Z,97248.34
2023-12-08T12:35:08.924Z,97246.13
2023-12-08T12:37:35.988Z,97238.78
2023-12-08T12:40:02.630Z,97234.16
2023-12-08T12:42:29.462Z,97230.00
2023-12-08T12:44:56.129Z,97227.81
2023-12-08T12:47:27.715Z,97233.91
2023-12-08T12:50:08.644Z,97231.97
2023-12-08T12:52:41.615Z,97242.94
2023-12-08T12:55:30.381Z,97234.16
2023-12-08T12:57:57.052Z,97237.09
2023-12-08T13:00:35.778Z,97240.03
2023-12-08T13:03:10.637Z,97234.66
2023-12-08T13:05:48.011Z,97233.22
2023-12-08T13:08:16.969Z,97230.53
2023-12-08T13:10:45.451Z,97233.94
2023-12-08T13:13:13.531Z,97226.13
2023-12-08T13:15:41.205Z,97232.00
2023-12-08T13:18:08.349Z,97222.75
2023-12-08T13:20:41.903Z,97229.56
2023-12-08T13:23:08.952Z,97227.84
2023-12-08T13:25:35.630Z,97233.22
2023-12-08T13:28:02.343Z,97226.38
2023-12-08T13:30:29.259Z,97241.00
2023-12-08T13:32:56.968Z,97235.66
2023-12-08T13:35:23.963Z,97231.25
2023-12-08T13:37:50.875Z,97236.63
2023-12-08T13:40:17.575Z,97237.09
2023-12-08T13:42:44.550Z,97234.91
2023-12-08T13:45:11.414Z,97235.88
2023-12-08T13:47:38.124Z,97247.59
2023-12-08T13:50:05.373Z,97246.63
2023-12-08T13:52:32.019Z,97243.44
2023-12-08T13:54:58.675Z,97234.66
2023-12-08T13:57:25.805Z,97237.09
2023-12-08T13:59:53.821Z,97247.09
2023-12-08T14:02:20.814Z,97248.09
2023-12-08T14:04:47.546Z,97248.81
2023-12-08T14:07:14.426Z,97264.66
2023-12-08T14:09:42.816Z,97261.25
2023-12-08T14:12:10.599Z,97262.50
2023-12-08T14:14:37.607Z,97261.25
2023-12-08T14:17:04.815Z,97269.34
2023-12-08T14:19:31.533Z,97267.88
2023-12-08T14:21:59.763Z,97270.06
2023-12-08T14:24:27.045Z,97274.69
2023-12-08T14:26:57.258Z,97279.56
2023-12-08T14:29:24.037Z,97273.50
2023-12-08T14:31:50.861Z,97276.38
2023-12-08T14:34:17.707Z,97285.66
2023-12-08T14:36:46.483Z,97285.38
2023-12-08T14:39:13.156Z,97288.75
2023-12-08T14:41:40.121Z,97293.41
2023-12-08T14:44:06.715Z,97291.22
2023-12-08T14:46:34.520Z,97292.16
2023-12-08T14:49:01.609Z,97290.19
2023-12-08T14:51:28.415Z,97291.63
2023-12-08T14:53:55.583Z,97309.19
2023-12-08T14:56:22.293Z,97300.91
2023-12-08T14:58:49.166Z,97304.31
2023-12-08T15:01:18.606Z,97307.47
2023-12-08T15:03:46.261Z,97310.19
2023-12-08T15:06:16.157Z,97307.22
2023-12-08T15:08:43.507Z,97310.59
2023-12-08T15:11:10.942Z,97312.06
2023-12-08T15:13:37.788Z,97310.84
2023-12-08T15:16:04.933Z,97316.69
2023-12-08T15:18:31.769Z,97325.22
2023-12-08T15:21:00.195Z,97323.75
2023-12-08T15:23:32.998Z,97327.63
2023-12-08T15:26:00.403Z,97327.19
2023-12-08T15:28:27.051Z,97327.19
2023-12-08T15:30:53.672Z,97319.88
2023-12-08T15:33:22.214Z,97327.69
2023-12-08T15:35:49.206Z,97326.72
2023-12-08T15:38:15.921Z,97331.34
2023-12-08T15:40:43.071Z,97332.84
2023-12-08T15:43:09.792Z,97325.25
2023-12-08T15:45:39.650Z,97338.94
2023-12-08T15:48:06.438Z,97329.91
2023-12-08T15:50:33.186Z,97340.16
2023-12-08T15:53:00.190Z,97339.44
2023-12-08T15:55:26.782Z,97343.09
2023-12-08T15:57:53.875Z,97342.34
2023-12-08T16:00:21.140Z,97344.06
2023-12-08T16:02:48.037Z,97345.28
2023-12-08T16:05:14.830Z,97346.97
2023-12-08T16:07:42.957Z,97349.88
2023-12-08T16:10:10.587Z,97354.75
2023-12-08T16:12:37.337Z,97356.19
2023-12-08T16:15:05.042Z,97352.53
2023-12-08T16:17:32.231Z,97356.19
2023-12-08T16:19:58.916Z,97351.75
2023-12-08T16:22:25.737Z,97357.13
2023-12-08T16:24:52.474Z,97359.28
2023-12-08T16:27:19.123Z,97354.16
2023-12-08T16:29:46.478Z,97363.41
2023-12-08T16:32:13.949Z,97359.47
2023-12-08T16:34:40.857Z,97369.44
2023-12-08T16:37:07.802Z,97371.13
2023-12-08T16:39:34.964Z,97374.81
2023-12-08T16:42:01.846Z,97376.25
2023-12-08T16:44:28.620Z,97369.22
2023-12-08T16:46:55.407Z,97381.88
2023-12-08T16:49:22.644Z,97377.47
2023-12-08T16:51:51.183Z,97378.44
2023-12-08T16:54:18.402Z,97387.69
2023-12-08T16:56:45.266Z,97389.66
2023-12-08T16:59:11.955Z,97393.03
2023-12-08T17:01:39.122Z,97390.84
2023-12-08T17:04:05.900Z,97400.63
2023-12-08T17:06:33.526Z,97398.91
2023-12-08T17:09:00.420Z,97396.50
2023-12-08T17:11:27.044Z,97397.75
2023-12-08T17:13:55.080Z,97397.25
2023-12-08T17:16:22.009Z,97387.06
2023-12-08T17:18:48.758Z,97391.22
2023-12-08T17:21:15.497Z,97391.50
2023-12-08T17:23:42.108Z,97388.84
2023-12-08T17:26:08.804Z,97394.53
2023-12-08T17:28:35.470Z,97393.75
2023-12-08T17:31:02.188Z,97398.44
2023-12-08T17:33:28.858Z,97398.44
2023-12-08T17:35:55.573Z,97406.22
2023-12-08T17:38:22.284Z,97411.81
2023-12-08T17:40:49.950Z,97407.19
2023-12-08T17:43:16.644Z,97407.19
2023-12-08T17:45:43.351Z,97411.53
2023-12-08T17:48:10.240Z,97413.97
2023-12-08T17:50:36.909Z,97421.06
2023-12-08T17:53:03.483Z,97426.16
2023-12-08T17:55:30.127Z,97429.09
2023-12-08T17:57:56.762Z,97422.53
2023-12-08T18:00:24.507Z,97425.75
2023-12-08T18:02:55.967Z,97428.13
2023-12-08T18:05:22.924Z,97420.34
2023-12-08T18:07:49.575Z,97421.56
2023-12-08T18:10:16.303Z,97433.03
2023-12-08T18:12:43.310Z,97428.69
2023-12-08T18:15:10.545Z,97436.75
2023-12-08T18:17:40.289Z,97429.16
2023-12-08T18:20:07.952Z,97434.81
2023-12-08T18:22:35.188Z,97436.50
2023-12-08T18:25:01.779Z,97438.94
2023-12-08T18:27:39.816Z,97438.44
2023-12-08T18:30:15.664Z,97436.25
2023-12-08T18:32:43.226Z,97436.03
2023-12-08T18:35:10.028Z,97443.38
2023-12-08T18:37:36.681Z,97454.84
2023-12-08T18:40:04.554Z,97457.00
2023-12-08T18:42:31.612Z,97454.06
2023-12-08T18:44:58.499Z,97455.06
2023-12-08T18:47:25.239Z,97455.28
2023-12-08T18:49:51.987Z,97460.41
2023-12-08T18:52:18.754Z,97460.88
2023-12-08T18:54:45.369Z,97461.88
2023-12-08T18:57:14.741Z,97469.69
2023-12-08T18:59:41.903Z,97473.63
2023-12-08T19:02:08.721Z,97476.34
2023-12-08T19:04:35.482Z,97469.00
2023-12-08T19:07:05.204Z,97470.91
2023-12-08T19:09:32.052Z,97474.56
2023-12-08T19:12:01.071Z,97473.09
2023-12-08T19:14:29.542Z,97482.59
2023-12-08T19:16:56.232Z,97492.97
2023-12-08T19:19:25.152Z,97497.13
2023-12-08T19:21:51.741Z,97507.19
2023-12-08T19:24:18.695Z,97510.06
2023-12-08T19:26:45.431Z,97507.63
2023-12-08T19:29:12.127Z,97502.56
2023-12-08T19:31:38.840Z,97498.69
2023-12-08T19:34:05.910Z,97497.47
2023-12-08T19:36:32.746Z,97507.19
2023-12-08T19:39:01.049Z,97499.91
2023-12-08T19:41:28.168Z,97507.47
2023-12-08T19:43:55.796Z,97506.50
2023-12-08T19:46:22.500Z,97519.97
2023-12-08T19:48:49.269Z,97513.88
2023-12-08T19:51:16.145Z,97511.19
2023-12-08T19:53:43.047Z,97515.59
2023-12-08T19:56:10.155Z,97515.16
2023-12-08T19:58:36.839Z,97511.47
2023-12-08T20:01:06.314Z,97513.47
2023-12-08T20:03:33.429Z,97513.69
2023-12-08T20:06:00.570Z,97515.09
2023-12-08T20:08:28.348Z,97510.00
2023-12-08T20:10:57.890Z,97516.16
2023-12-08T20:13:24.633Z,97511.97
2023-12-08T20:15:51.297Z,97510.00
2023-12-08T20:18:18.201Z,97509.06
2023-12-08T20:20:44.888Z,97515.38
2023-12-08T20:23:12.611Z,97518.84
2023-12-08T20:25:39.942Z,97504.88
2023-12-08T20:28:06.757Z,97512.97
2023-12-08T20:30:34.789Z,97515.69
2023-12-08T20:33:02.897Z,97509.78
2023-12-08T20:35:29.581Z,97515.13
2023-12-08T20:37:56.571Z,97521.28
2023-12-08T20:40:23.166Z,97511.97
2023-12-08T20:42:49.964Z,97526.34
2023-12-08T20:45:16.807Z,97520.06
2023-12-08T20:47:43.694Z,97510.75
2023-12-08T20:50:10.739Z,97525.06
2023-12-08T20:52:37.543Z,97519.25
2023-12-08T20:55:04.718Z,97521.91
2023-12-08T20:57:31.550Z,97524.38
2023-12-08T20:59:58.268Z,97523.16
2023-12-08T21:02:25.051Z,97526.84
2023-12-08T21:04:52.022Z,97519.97
2023-12-08T21:07:18.852Z,97517.56
2023-12-08T21:09:45.491Z,97527.16
2023-12-08T21:12:12.558Z,97528.56
2023-12-08T21:14:39.219Z,97521.53
2023-12-08T21:17:05.854Z,97532.28
2023-12-08T21:19:32.757Z,97536.94
2023-12-08T21:22:02.626Z,97533.28
2023-12-08T21:24:29.615Z,97535.47
2023-12-08T21:26:56.257Z,97542.53
2023-12-08T21:29:23.983Z,97540.53
2023-12-08T21:31:52.250Z,97548.53
2023-12-08T21:34:19.000Z,97543.44
2023-12-08T21:36:45.867Z,97539.81
2023-12-08T21:39:12.673Z,97532.25
2023-12-08T21:41:39.387Z,97541.97
2023-12-08T21:44:07.721Z,97536.13
2023-12-08T21:46:34.783Z,97539.50
2023-12-08T21:49:01.972Z,97546.13
2023-12-08T21:51:30.789Z,97546.91
2023-12-08T21:53:57.853Z,97542.47
2023-12-08T21:56:29.562Z,97548.31
2023-12-08T21:58:58.577Z,97542.69
2023-12-08T22:01:25.521Z,97538.00
2023-12-08T22:03:52.831Z,97553.16
2023-12-08T22:06:19.547Z,97535.09
2023-12-08T22:08:46.497Z,97544.16
2023-12-08T22:11:13.094Z,97544.47
2023-12-08T22:13:39.974Z,97548.84
2023-12-08T22:16:07.028Z,97553.50
2023-12-08T22:18:34.008Z,97555.47
2023-12-08T22:21:00.844Z,97548.69
2023-12-08T22:23:28.125Z,97543.53
2023-12-08T22:25:54.703Z,97559.13
2023-12-08T22:28:24.175Z,97555.94
2023-12-08T22:30:50.878Z,97552.25
2023-12-08T22:33:17.620Z,97562.03
2023-12-08T22:35:44.458Z,97561.31
2023-12-08T22:38:12.241Z,97571.59
2023-12-08T22:40:38.867Z,97564.75
2023-12-08T22:43:05.531Z,97564.44
2023-12-08T22:45:34.010Z,97576.91
2023-12-08T22:48:01.128Z,97567.91
2023-12-08T22:50:35.433Z,97558.91
2023-12-08T22:53:05.601Z,97568.91
2023-12-08T22:55:32.177Z,97569.69
2023-12-08T22:57:58.966Z,97576.72
2023-12-08T23:00:25.747Z,97574.03
2023-12-08T23:02:53.209Z,97574.50
2023-12-08T23:05:20.393Z,97575.22
2023-12-08T23:07:47.124Z,97567.00
2023-12-08T23:10:14.134Z,97575.50
2023-12-08T23:12:41.429Z,97572.59
2023-12-08T23:15:09.441Z,97568.25
2023-12-08T23:17:37.196Z,97572.59
2023-12-08T23:20:04.315Z,97577.41
2023-12-08T23:22:30.911Z,97568.16
2023-12-08T23:24:57.539Z,97570.09
2023-12-08T23:27:24.173Z,97575.47
2023-12-08T23:29:50.840Z,97571.09
2023-12-08T23:32:17.439Z,97571.59
2023-12-08T23:34:44.423Z,97569.69
2023-12-08T23:37:11.239Z,97570.66
2023-12-08T23:39:39.523Z,97568.94
2023-12-08T23:42:06.805Z,97578.22
2023-12-08T23:44:33.675Z,97576.53
2023-12-08T23:47:00.740Z,97573.13
2023-12-08T23:49:27.544Z,97572.66
2023-12-08T23:51:54.244Z,97577.28
2023-12-08T23:54:20.936Z,97577.50
2023-12-08T23:56:47.507Z,97589.50
2023-12-08T23:59:14.439Z,97588.75
